Portada
METAR-TAF:

METAR-TAF

Aeroports :

Aeroport d'El Hierro

El Hierro, Espanya

latitud: 27-49N, longitud: 017-53W, altitud: 32 m

Observació

L'informe es va fer fa 19 minuts, a les 08:00 UTC
Vent 21 kt del Nord/Nord-Est, variant entre Nord i Nord-Est
Temperatura 22°C
Humitat 65%
Pressió 1021 hPa
Visibilitat 10 km o més
Núvols disperses a una alçada de 3500 ft

METAR: GCHI 120800Z 03021KT 350V050 9999 SCT035 22/15 Q1021

Hora: 08:19 (08:19 UTC)

Pronòstic

L'informe es va fer fa 6 hores i 19 minuts, a les 02:00 UTC
Pronòstic vàlid del 12 a les 03 UTC al 13 a les 03 UTC
Vent 18 kt del Nord
Visibilitat 10 km o més
Cel ennuvolat a una alçada de 2000 ft
Probabilitat 40% :
Temporalment
l' 12 a les 03 UTC al 12 a les 24 UTC
Vent 18 kt del Nord/Nord-Est amb ràfegues de 28 kt
Probabilitat 30% :
Temporalment
l' 12 a les 09 UTC al 12 a les 18 UTC
pluja

TAF: GCHI 120200Z 1203/1303 01018KT 9999 BKN020 TX23/1214Z TN21/1206Z PROB40 TEMPO 1203/1224 02018G28KT PROB30 TEMPO 1209/1218 RA

Observacions i pronòstics meteorològics de més de 4000 aeroports (METAR i TAF).

Les estacions disponibles són els punts grocs i vermells al mapa.

Posi el ratolí al punt desitjat per veure el nom de l'estació.

Feu clic per veure les observacions i els pronòstics meteorològics.

Per canviar el mapa: feu clic els botons verds amb una creu de color negre per apropar; al botó verd amb un guió per allunyar la imatge; o en les fletxes verdes per a mapes adjacents.


METAR-TAF: